Time;durP1;ratioP1;P1;durP2;ratioP2;P2;SDS_P1;SDS_P2;PMS_P1;PMS_P2;Temp;Humidity;BMP_temperature;BMP_pressure;BME280_temperature;BME280_humidity;BME280_pressure;Samples;Min_cycle;Max_cycle;Signal;HPM_P1;HPM_P2
2022/05/25 03:58:05;;;;;;;5.90;4.22;;;;;;;14.93;100.00;100025.66;4745343;27;20128;-87
2022/05/25 04:01:08;;;;;;;6.03;3.83;;;;;;;14.96;100.00;100024.41;5367321;33;32650;-88
2022/05/25 04:04:12;;;;;;;4.95;4.00;;;;;;;14.95;100.00;100022.75;5367343;33;33484;-92
2022/05/25 04:10:33;;;;;;;4.45;3.80;;;;;;;15.10;100.00;100025.19;5367295;33;34657;-88
2022/05/25 04:13:50;;;;;;;4.72;3.70;;;;;;;15.09;100.00;100037.06;5379294;27;34895;-88
2022/05/25 04:16:53;;;;;;;5.70;4.07;;;;;;;15.25;100.00;100031.16;5428944;27;34440;-86
2022/05/25 04:19:58;;;;;;;3.87;3.50;;;;;;;15.32;100.00;100022.97;5426209;27;33190;-88
2022/05/25 04:23:26;;;;;;;4.67;3.93;;;;;;;15.33;100.00;100024.66;5429060;27;32904;-86
2022/05/25 04:38:20;;;;;;;4.72;3.67;;;;;;;15.77;100.00;100045.47;5416546;27;33165;-87
2022/05/25 04:41:23;;;;;;;3.85;3.40;;;;;;;15.90;100.00;100030.94;5433926;27;33331;-87
2022/05/25 04:44:41;;;;;;;4.35;3.42;;;;;;;15.91;99.64;100035.31;5427090;27;33835;-87
2022/05/25 04:47:51;;;;;;;3.67;3.37;;;;;;;15.94;100.00;100029.47;5426004;27;33552;-87
2022/05/25 04:50:56;;;;;;;5.37;3.37;;;;;;;15.89;99.31;100029.28;5383691;33;33860;-88
2022/05/25 04:54:14;;;;;;;3.83;3.47;;;;;;;15.78;99.76;100024.56;5386433;27;32650;-87
2022/05/25 04:57:19;;;;;;;4.40;3.35;;;;;;;15.85;100.00;100019.91;5417544;27;32024;-86
2022/05/25 05:00:23;;;;;;;4.28;3.60;;;;;;;15.90;100.00;100020.09;5406260;27;31384;-87
2022/05/25 05:03:27;;;;;;;4.07;3.40;;;;;;;16.02;99.79;100037.31;5404162;27;31992;-86
2022/05/25 05:06:30;;;;;;;4.43;2.85;;;;;;;16.06;97.02;100035.00;5381838;33;33521;-86
2022/05/25 05:09:36;;;;;;;3.62;3.10;;;;;;;16.21;96.93;100032.78;5381122;33;33920;-86
2022/05/25 05:12:41;;;;;;;3.67;3.22;;;;;;;16.38;96.02;100038.47;5380226;33;33173;-86
2022/05/25 05:15:46;;;;;;;4.22;3.40;;;;;;;16.44;93.74;100036.72;5380973;33;33962;-86
2022/05/25 05:18:49;;;;;;;3.67;3.33;;;;;;;16.43;93.07;100038.59;5366933;33;33602;-86
2022/05/25 05:21:59;;;;;;;3.75;3.00;;;;;;;16.54;92.89;100043.28;5370578;33;32316;-89
2022/05/25 05:25:03;;;;;;;5.47;3.95;;;;;;;16.69;92.66;100044.81;5366181;33;33158;-90
2022/05/25 05:28:15;;;;;;;5.28;3.40;;;;;;;16.90;90.73;100046.28;5379754;33;34139;-86
2022/05/25 05:31:18;;;;;;;4.70;3.12;;;;;;;17.22;91.39;100039.59;5380193;33;33770;-86
2022/05/25 05:34:21;;;;;;;3.83;3.17;;;;;;;17.47;88.35;100056.84;5366187;33;32546;-86
2022/05/25 05:37:36;;;;;;;3.08;2.70;;;;;;;17.56;86.16;100052.75;5386271;33;34372;-86
2022/05/25 05:40:40;;;;;;;3.00;2.67;;;;;;;17.64;85.11;100055.97;5391198;33;33776;-86
2022/05/25 05:43:43;;;;;;;3.15;2.70;;;;;;;17.62;84.35;100073.59;5401172;33;34010;-86
2022/05/25 05:46:48;;;;;;;3.37;3.10;;;;;;;17.77;85.69;100076.72;5397076;33;34954;-86
2022/05/25 05:49:52;;;;;;;5.07;3.22;;;;;;;17.93;85.57;100080.72;5372541;33;31967;-86
2022/05/25 05:52:59;;;;;;;3.10;2.80;;;;;;;18.01;84.21;100080.34;5371563;33;33584;-86
2022/05/25 05:56:03;;;;;;;4.85;3.17;;;;;;;18.10;83.74;100083.56;5364723;33;32132;-86
2022/05/25 05:59:06;;;;;;;3.20;2.90;;;;;;;18.09;83.59;100081.91;5372190;33;32541;-86
2022/05/25 06:02:09;;;;;;;3.72;2.62;;;;;;;18.18;82.67;100096.03;5389198;32;33836;-86
2022/05/25 06:05:12;;;;;;;3.55;2.75;;;;;;;18.23;82.29;100087.97;5369341;33;34004;-86
2022/05/25 06:08:21;;;;;;;3.35;2.75;;;;;;;18.23;83.28;100087.97;5360747;33;33498;-86
2022/05/25 06:11:24;;;;;;;3.35;3.05;;;;;;;18.21;81.60;100093.66;5380146;33;33349;-86
2022/05/25 06:14:26;;;;;;;3.55;3.25;;;;;;;18.21;81.86;100090.94;5379829;33;33255;-86
2022/05/25 06:20:52;;;;;;;4.40;2.97;;;;;;;18.43;77.66;100095.78;5387567;33;33619;-85
2022/05/25 06:23:57;;;;;;;3.92;3.08;;;;;;;18.60;77.26;100091.28;5368236;33;32416;-86
2022/05/25 06:27:00;;;;;;;3.62;2.70;;;;;;;18.53;77.69;100109.69;5380953;33;33446;-86
2022/05/25 06:30:03;;;;;;;3.50;2.83;;;;;;;18.35;80.54;100091.53;5381734;33;32077;-85
2022/05/25 06:33:07;;;;;;;3.78;2.90;;;;;;;18.52;78.55;100094.41;5380368;33;31798;-85
2022/05/25 06:36:11;;;;;;;3.78;3.03;;;;;;;18.74;77.07;100091.91;5381718;33;33749;-85
2022/05/25 06:39:14;;;;;;;3.15;2.80;;;;;;;18.70;76.62;100088.81;5365812;33;33676;-86
2022/05/25 06:42:17;;;;;;;3.53;2.87;;;;;;;18.97;77.44;100093.78;5377283;33;33726;-86
2022/05/25 06:45:20;;;;;;;3.65;2.50;;;;;;;19.29;75.02;100091.44;5363882;33;32321;-85
2022/05/25 06:48:23;;;;;;;5.18;2.90;;;;;;;19.43;72.56;100086.53;5365275;33;32031;-86
2022/05/25 06:51:35;;;;;;;2.87;2.58;;;;;;;19.33;72.44;100086.34;5366889;33;33800;-85
2022/05/25 06:54:42;;;;;;;5.07;2.90;;;;;;;19.37;74.06;100085.63;5368354;33;32100;-90
2022/05/25 06:57:45;;;;;;;3.37;2.40;;;;;;;19.57;73.00;100085.19;5382537;33;33665;-86
2022/05/25 07:00:47;;;;;;;2.50;2.30;;;;;;;19.88;73.29;100077.56;5385544;33;33435;-86
2022/05/25 07:03:54;;;;;;;2.67;2.47;;;;;;;20.20;68.81;100080.56;5376320;33;33234;-86
2022/05/25 07:07:01;;;;;;;2.35;2.08;;;;;;;20.30;68.48;100069.81;5375711;33;35175;-86
2022/05/25 07:10:04;;;;;;;2.65;1.80;;;;;;;20.39;68.60;100076.50;5379864;33;35169;-86
2022/05/25 07:13:07;;;;;;;2.70;2.42;;;;;;;20.44;68.11;100073.00;5349907;33;31722;-86
2022/05/25 07:16:14;;;;;;;1.80;1.70;;;;;;;20.49;68.42;100073.09;5360855;33;33615;-86
2022/05/25 07:19:17;;;;;;;3.42;2.12;;;;;;;20.60;66.48;100076.84;5351235;33;32675;-86
2022/05/25 07:22:20;;;;;;;4.03;2.15;;;;;;;20.80;67.79;100079.88;5375316;33;33105;-86
2022/05/25 07:25:23;;;;;;;2.20;2.00;;;;;;;21.03;67.33;100080.69;5377931;33;33898;-86
2022/05/25 07:28:25;;;;;;;2.85;1.77;;;;;;;21.10;65.68;100075.03;5382934;33;33033;-86
2022/05/25 07:31:37;;;;;;;2.97;2.08;;;;;;;21.03;66.86;100084.28;5375533;33;32643;-86
2022/05/25 07:34:54;;;;;;;2.58;2.05;;;;;;;21.34;64.94;100078.34;5354696;33;32880;-86
2022/05/25 07:38:03;;;;;;;4.25;1.70;;;;;;;21.48;64.31;100064.03;5357704;33;32202;-86
2022/05/25 07:41:07;;;;;;;4.72;2.25;;;;;;;21.72;63.28;100058.22;5359526;33;32510;-85
2022/05/25 07:44:16;;;;;;;2.92;2.37;;;;;;;21.72;62.42;100066.44;5376838;33;33258;-86
2022/05/25 07:47:18;;;;;;;2.12;1.92;;;;;;;21.89;63.63;100063.59;5374244;33;33180;-86
2022/05/25 07:50:23;;;;;;;2.12;1.95;;;;;;;21.87;62.70;100066.59;5386825;33;33525;-85
2022/05/25 07:56:48;;;;;;;2.87;1.77;;;;;;;22.08;61.64;100062.09;5379807;33;32195;-86
2022/05/25 07:59:50;;;;;;;4.78;2.17;;;;;;;22.05;62.02;100073.59;5378866;33;32586;-86
2022/05/25 08:06:19;;;;;;;2.03;1.85;;;;;;;22.12;63.42;100065.16;5380428;33;33637;-90
2022/05/25 08:09:26;;;;;;;3.72;2.40;;;;;;;22.25;62.14;100072.16;5374654;33;34115;-90
2022/05/25 08:12:30;;;;;;;2.15;1.95;;;;;;;22.37;61.27;100075.53;5380484;33;33190;-86
2022/05/25 08:15:33;;;;;;;3.20;2.15;;;;;;;22.67;60.69;100074.91;5363767;33;32471;-86
2022/05/25 08:18:37;;;;;;;2.87;2.35;;;;;;;22.67;59.17;100080.41;5376212;33;33066;-85
2022/05/25 08:21:39;;;;;;;5.25;2.50;;;;;;;22.47;59.42;100077.53;5366655;33;34125;-85
2022/05/25 08:24:49;;;;;;;2.47;2.08;;;;;;;22.40;60.64;100069.50;5376041;33;32679;-85
2022/05/25 08:27:51;;;;;;;3.30;2.55;;;;;;;22.39;60.11;100071.44;5373691;33;33572;-86
2022/05/25 08:30:54;;;;;;;2.40;2.20;;;;;;;22.53;60.83;100062.75;5348273;33;33226;-86
2022/05/25 08:33:57;;;;;;;2.97;2.10;;;;;;;22.60;60.37;100071.56;5362205;33;33660;-86
2022/05/25 08:37:02;;;;;;;2.92;2.45;;;;;;;22.70;59.53;100062.56;5366166;33;32881;-85
2022/05/25 08:40:06;;;;;;;3.50;2.47;;;;;;;22.70;61.20;100057.06;5386637;33;33236;-85
2022/05/25 08:43:18;;;;;;;3.05;2.42;;;;;;;22.84;60.27;100052.75;5387447;33;33480;-85
2022/05/25 08:46:24;;;;;;;1.90;1.80;;;;;;;23.03;60.06;100059.47;5362870;33;33579;-85
2022/05/25 08:49:30;;;;;;;2.60;2.40;;;;;;;23.11;61.49;100060.87;5365629;33;33669;-86
2022/05/25 08:52:36;;;;;;;3.70;2.47;;;;;;;23.30;58.87;100056.53;5365256;33;33450;-86
2022/05/25 08:56:01;;;;;;;2.62;2.30;;;;;;;23.56;59.90;100056.63;5365316;33;33052;-85
2022/05/25 08:59:12;;;;;;;2.83;2.45;;;;;;;23.83;58.68;100052.84;5362533;33;33518;-85
2022/05/25 09:02:49;;;;;;;3.25;2.67;;;;;;;23.85;57.16;100053.41;5363873;33;32709;-85
2022/05/25 09:06:05;;;;;;;3.80;2.12;;;;;;;23.92;58.73;100060.25;5380851;33;33898;-85
2022/05/25 09:09:23;;;;;;;3.62;2.22;;;;;;;24.09;56.48;100050.91;5368513;33;32476;-85
2022/05/25 09:12:38;;;;;;;2.35;2.12;;;;;;;24.27;56.50;100055.84;5368784;33;32138;-85
2022/05/25 09:16:32;;;;;;;4.18;2.55;;;;;;;24.15;55.65;100050.63;5373379;33;33567;-86
2022/05/25 09:19:17;;;;;;;2.55;2.35;;;;;;;24.28;57.07;100051.16;5357515;33;32084;-86
2022/05/25 09:22:24;;;;;;;2.70;2.22;;;;;;;24.43;55.93;100062.22;5373025;33;33254;-86
2022/05/25 09:25:28;;;;;;;2.70;2.50;;;;;;;24.58;54.90;100051.16;5361733;33;32772;-85
2022/05/25 09:28:35;;;;;;;2.87;2.15;;;;;;;24.72;53.50;100059.69;5361609;33;32072;-86
2022/05/25 09:31:57;;;;;;;3.33;2.90;;;;;;;24.64;54.19;100054.72;5363937;33;33315;-86
2022/05/25 09:35:06;;;;;;;4.30;3.08;;;;;;;24.91;54.24;100057.13;5365671;33;32626;-86
2022/05/25 09:38:31;;;;;;;2.67;2.47;;;;;;;24.95;53.94;100052.72;5379994;33;33524;-86
2022/05/25 09:41:34;;;;;;;6.20;2.85;;;;;;;25.14;52.90;100063.13;5365303;33;32128;-86
2022/05/25 09:44:37;;;;;;;4.85;3.35;;;;;;;25.28;55.64;100058.66;5378759;33;34058;-86
2022/05/25 09:47:46;;;;;;;3.85;3.22;;;;;;;25.42;52.33;100059.69;5362865;33;32104;-86
2022/05/25 09:50:51;;;;;;;;;;;;;;;25.41;52.53;100054.44;5378758;33;33626;-86
2022/05/25 09:54:23;;;;;;;4.28;2.90;;;;;;;25.28;54.25;100055.91;5378230;33;32935;-88
2022/05/25 09:57:54;;;;;;;5.45;3.33;;;;;;;25.19;53.59;100054.84;5377559;33;34431;-86
2022/05/25 10:01:00;;;;;;;3.00;2.55;;;;;;;25.38;52.56;100060.53;5377207;33;33533;-86
2022/05/25 10:04:11;;;;;;;4.43;2.70;;;;;;;25.73;51.90;100057.53;5358679;33;32147;-86
2022/05/25 10:07:19;;;;;;;5.45;2.60;;;;;;;26.13;52.50;100054.81;5351959;33;32226;-86
2022/05/25 10:10:56;;;;;;;6.95;3.85;;;;;;;26.84;52.21;100047.75;5375185;33;33639;-86
2022/05/25 10:14:24;;;;;;;3.22;2.78;;;;;;;26.30;50.22;100046.91;5355751;33;32627;-86
2022/05/25 10:17:47;;;;;;;3.60;2.60;;;;;;;26.03;51.20;100050.16;5382421;33;33013;-86
2022/05/25 10:20:50;;;;;;;4.07;2.55;;;;;;;25.94;52.50;100044.44;5377394;33;33575;-91
2022/05/25 10:23:53;;;;;;;2.85;2.60;;;;;;;25.87;53.63;100034.88;5369704;33;33639;-91
2022/05/25 10:26:59;;;;;;;5.97;3.12;;;;;;;26.90;50.98;100039.09;5358895;33;34933;-90
2022/05/25 10:37:25;;;;;;;3.33;2.95;;;;;;;28.70;45.96;100040.78;5378524;33;33028;-86
2022/05/25 10:40:31;;;;;;;4.57;3.00;;;;;;;28.45;45.46;100036.53;5379144;33;34225;-86
2022/05/25 10:43:37;;;;;;;3.92;3.25;;;;;;;28.55;45.58;100027.22;5363466;33;32468;-86
2022/05/25 10:46:50;;;;;;;3.72;3.30;;;;;;;28.15;46.07;100032.34;5378141;33;34017;-86
2022/05/25 10:49:53;;;;;;;3.83;3.08;;;;;;;27.94;45.82;100025.53;5364655;33;31702;-86
2022/05/25 10:53:18;;;;;;;3.03;2.83;;;;;;;27.45;48.34;100038.69;5383615;33;33116;-86
2022/05/25 10:56:38;;;;;;;6.12;3.25;;;;;;;26.95;48.42;100035.47;5362984;33;32218;-86
2022/05/25 11:00:03;;;;;;;5.55;3.53;;;;;;;26.61;50.17;100036.41;5386739;33;34889;-89
2022/05/25 11:03:42;;;;;;;3.72;3.28;;;;;;;27.05;51.45;100029.78;5357015;33;33804;-87
2022/05/25 11:07:07;;;;;;;3.60;3.30;;;;;;;28.57;48.79;100030.50;5369320;33;32711;-86
2022/05/25 11:10:49;;;;;;;6.03;3.65;;;;;;;28.89;44.48;100034.31;5356167;33;35157;-86
2022/05/25 11:14:36;;;;;;;4.68;3.33;;;;;;;28.79;44.78;100040.87;5321367;33;32172;-86
2022/05/25 11:18:08;;;;;;;4.00;3.33;;;;;;;29.33;42.81;100030.87;5365927;33;31677;-90
2022/05/25 11:21:40;;;;;;;5.37;3.05;;;;;;;30.02;41.39;100039.00;5370360;33;33138;-87
2022/05/25 11:25:00;;;;;;;3.42;3.15;;;;;;;29.72;42.91;100032.25;5377101;33;34050;-86
2022/05/25 11:28:17;;;;;;;4.97;3.40;;;;;;;28.64;45.43;100032.88;5377074;33;33709;-86
2022/05/25 11:31:36;;;;;;;4.00;3.12;;;;;;;30.07;42.92;100038.06;5373585;33;32764;-86
2022/05/25 11:34:55;;;;;;;4.68;3.33;;;;;;;31.33;38.83;100039.59;5381693;33;33619;-86
2022/05/25 11:38:29;;;;;;;3.55;2.92;;;;;;;32.64;37.22;100040.28;5380345;33;34374;-86
2022/05/25 11:41:55;;;;;;;4.37;2.85;;;;;;;32.01;37.15;100045.53;5373484;33;34251;-90
2022/05/25 11:45:26;;;;;;;3.37;3.00;;;;;;;31.65;38.43;100043.06;5363579;33;32108;-86
2022/05/25 11:48:39;;;;;;;2.67;2.47;;;;;;;31.30;38.78;100051.34;5357268;33;32545;-87
2022/05/25 11:51:55;;;;;;;3.10;2.78;;;;;;;30.20;40.68;100050.22;5366626;33;33195;-87
2022/05/25 11:55:10;;;;;;;3.90;2.90;;;;;;;31.48;39.14;100043.87;5378542;33;33469;-86
2022/05/25 11:58:37;;;;;;;2.90;2.70;;;;;;;32.83;36.41;100043.50;5378508;33;33232;-86
2022/05/25 12:01:58;;;;;;;3.75;2.33;;;;;;;34.19;34.41;100043.19;5360593;33;32137;-87
2022/05/25 12:05:41;;;;;;;3.15;2.85;;;;;;;33.65;35.80;100040.37;5365478;33;32212;-86
2022/05/25 12:09:07;;;;;;;3.53;2.80;;;;;;;32.51;36.66;100047.72;5364536;33;32875;-86
2022/05/25 12:12:27;;;;;;;3.03;2.70;;;;;;;32.69;36.93;100040.94;5361158;33;32487;-87
2022/05/25 12:15:44;;;;;;;6.03;2.60;;;;;;;34.58;33.59;100040.97;5366391;33;32889;-86
2022/05/25 12:19:06;;;;;;;3.30;3.00;;;;;;;35.26;32.54;100040.37;5365131;33;32220;-86
2022/05/25 12:22:13;;;;;;;2.87;2.67;;;;;;;34.44;32.96;100049.66;5374512;33;34837;-86
2022/05/25 12:25:17;;;;;;;2.78;2.58;;;;;;;33.61;34.70;100048.62;5366541;33;31994;-87
2022/05/25 12:28:26;;;;;;;2.67;2.47;;;;;;;33.37;35.41;100054.84;5365271;33;33126;-86
2022/05/25 12:31:30;;;;;;;5.00;3.08;;;;;;;34.69;33.34;100050.53;5377135;33;34109;-86
2022/05/25 12:34:38;;;;;;;2.92;2.72;;;;;;;34.84;32.43;100045.41;5370020;33;31556;-86
2022/05/25 12:37:44;;;;;;;2.70;2.50;;;;;;;34.82;31.78;100068.13;5370565;33;31889;-86
2022/05/25 12:40:51;;;;;;;2.45;2.25;;;;;;;34.76;32.27;100055.56;5380515;33;33390;-86
2022/05/25 12:48:30;;;;;;;2.55;2.30;;;;;;;34.68;32.52;100065.66;5359616;33;32013;-86
2022/05/25 12:50:47;;;;;;;2.95;2.40;;;;;;;36.39;29.65;100051.66;5356192;33;32148;-87
2022/05/25 12:53:50;;;;;;;2.50;2.30;;;;;;;35.56;31.05;100046.53;5375736;33;33208;-87
2022/05/25 12:56:55;;;;;;;4.65;2.78;;;;;;;36.26;29.93;100048.13;5365044;33;31790;-87
2022/05/25 12:59:58;;;;;;;3.10;2.80;;;;;;;36.13;29.46;100053.00;5379212;33;33402;-86
2022/05/25 13:03:36;;;;;;;3.65;2.67;;;;;;;36.24;29.02;100048.50;5366284;33;32734;-87
2022/05/25 13:06:38;;;;;;;2.90;2.70;;;;;;;36.26;29.01;100048.13;5353558;33;235782;-87
2022/05/25 13:09:42;;;;;;;4.05;2.67;;;;;;;36.35;29.12;100045.16;5380778;33;34971;-86
2022/05/25 13:12:49;;;;;;;3.35;2.60;;;;;;;35.95;29.46;100035.66;5367100;33;31618;-87
2022/05/25 13:15:52;;;;;;;3.35;2.80;;;;;;;37.23;28.54;100026.13;5388765;33;33639;-87
2022/05/25 13:18:57;;;;;;;4.57;3.10;;;;;;;36.28;29.25;100032.56;5378851;33;32906;-86
2022/05/25 13:22:03;;;;;;;3.65;2.95;;;;;;;37.22;28.03;100035.72;5366623;33;32199;-87
2022/05/25 13:25:16;;;;;;;3.17;2.80;;;;;;;37.58;27.11;100033.72;5371694;33;31884;-87
2022/05/25 13:28:39;;;;;;;3.45;3.00;;;;;;;37.70;27.04;100030.78;5367611;33;31399;-87
2022/05/25 13:31:53;;;;;;;3.25;2.40;;;;;;;37.78;26.62;100031.75;5364764;33;32760;-86
2022/05/25 13:34:57;;;;;;;2.70;2.50;;;;;;;37.41;27.19;100032.97;5378707;33;34685;-86
2022/05/25 13:38:13;;;;;;;4.12;2.53;;;;;;;37.09;27.07;100037.84;5377066;33;33134;-87
2022/05/25 13:41:26;;;;;;;3.05;2.83;;;;;;;36.41;29.01;100044.53;5372237;33;32992;-88
2022/05/25 13:44:41;;;;;;;3.05;2.65;;;;;;;36.61;29.34;100047.47;5347918;33;31920;-87
2022/05/25 13:47:55;;;;;;;3.20;3.00;;;;;;;37.10;27.93;100047.91;5362535;33;33531;-87
2022/05/25 13:50:58;;;;;;;3.58;2.58;;;;;;;37.04;27.31;100054.97;5378487;33;33629;-87
2022/05/25 13:54:23;;;;;;;4.60;2.80;;;;;;;35.41;29.83;100056.44;5376899;33;31980;-87
2022/05/25 13:57:51;;;;;;;2.78;2.55;;;;;;;36.66;28.16;100045.22;5368255;33;31762;-87
2022/05/25 14:01:06;;;;;;;3.17;2.87;;;;;;;35.63;29.42;100048.75;5365587;33;31809;-87
2022/05/25 14:04:23;;;;;;;3.15;2.95;;;;;;;32.67;34.42;100059.97;5369783;33;32377;-87
2022/05/25 14:07:41;;;;;;;4.37;3.15;;;;;;;30.13;38.85;100075.66;5384430;33;33778;-88
2022/05/25 14:11:02;;;;;;;4.47;3.60;;;;;;;28.28;43.34;100080.56;5375375;33;33286;-87
2022/05/25 14:14:29;;;;;;;3.85;3.55;;;;;;;27.24;45.79;100082.38;5356512;32;31761;-88
2022/05/25 14:17:38;;;;;;;5.28;3.72;;;;;;;26.86;47.52;100082.25;5397156;27;33655;-87
2022/05/25 14:33:26;;;;;;;6.00;3.50;;;;;;;26.80;48.23;100099.19;1494676;27;20144;-89
2022/05/25 14:36:33;;;;;;;3.85;3.47;;;;;;;26.43;48.29;100115.22;5335564;33;32286;-87
2022/05/25 14:39:36;;;;;;;4.20;3.80;;;;;;;26.31;48.35;100117.56;5345123;27;32395;-87
2022/05/25 14:46:46;;;;;;;4.45;4.05;;;;;;;25.60;50.26;100121.59;3056580;27;20135;-87
2022/05/25 14:49:55;;;;;;;3.78;3.40;;;;;;;25.79;50.58;100116.25;5345951;33;33352;-87
2022/05/25 15:01:14;;;;;;;3.95;3.55;;;;;;;25.52;49.93;100131.28;3519807;27;20469;-87
2022/05/25 15:04:31;;;;;;;4.60;3.67;;;;;;;25.22;50.56;100135.00;5405793;27;34149;-87
2022/05/25 15:07:35;;;;;;;4.45;3.67;;;;;;;25.17;51.23;100134.19;5409474;27;32373;-87
2022/05/25 15:18:30;;;;;;;5.90;3.60;;;;;;;24.59;52.97;100148.31;5375673;33;33483;-87
2022/05/25 15:21:34;;;;;;;;;;;;;;;24.56;54.17;100154.38;5372081;33;33562;-86
2022/05/25 15:25:08;;;;;;;4.72;3.83;;;;;;;24.53;53.96;100165.94;5392708;27;33521;-87
2022/05/25 15:28:28;;;;;;;4.12;3.70;;;;;;;24.58;53.85;100165.94;5365133;33;33293;-88
2022/05/25 15:31:32;;;;;;;4.12;3.72;;;;;;;24.50;53.82;100161.00;5364049;33;31919;-87
2022/05/25 15:34:38;;;;;;;4.00;3.50;;;;;;;24.40;55.13;100161.81;5396105;27;33464;-87
2022/05/25 15:41:09;;;;;;;3.65;2.80;;;;;;;24.19;52.59;100172.78;5384833;27;32583;-86
2022/05/25 15:44:13;;;;;;;3.00;2.65;;;;;;;23.71;54.30;100182.28;5371287;33;31432;-87
2022/05/25 15:47:17;;;;;;;2.80;2.50;;;;;;;23.64;54.40;100177.03;5365671;33;32671;-86
2022/05/25 15:50:54;;;;;;;2.55;2.30;;;;;;;23.51;54.52;100177.50;5415478;27;33233;-88
2022/05/25 15:53:59;;;;;;;2.03;1.85;;;;;;;23.37;55.15;100168.94;5400596;27;32589;-86
2022/05/25 15:57:03;;;;;;;1.85;1.75;;;;;;;23.22;55.77;100161.44;5407351;27;32768;-87
